EKRK

Copenhagen Roskilde Airport

Copenhagen, Denmark
METAR EKRK 211320Z AUTO 34010KT 290V010 9999NDV NCD 26/06 Q1012
Observed Flight Rules
Jul-21 @ 13:20 UTC (16 minutes ago)
Wind Clouds
340° at 10 knots
  • Clear skies
Temperatures Readings
Current 26°C / 79°F
Dewpoint 6°C / 43°F
Humidity 28%
Altimeter 29.88" Hg
Pressure 1012 hPa
Elevation 44
METAR EKRK 211320Z AUTO 34010KT 290V010 9999NDV NCD 26/06 Q1012
Observed Flight Rules
Jul-21 @ 13:20 UTC
(16 minutes ago)
Wind
340° at 10 knots
Clouds
  • Clear skies
Temperature Dewpoint
26°C / 79°F 6°C / 43°F
Humidity Altimeter Pressure
28% 29.88" Hg 1012 hPa